Time,TemperatureF,DewpointF,PressureIn,WindDirection,WindDirectionDegrees,WindSpeedMPH,WindSpeedGustMPH,Humidity,HourlyPrecipIn,Conditions,Clouds,dailyrainin,SolarRadiationWatts/m^2,SoftwareType,DateUTC
2013-12-30 00:06:00,58.2,57.0,30.00,WSW,258,0.0,1.0,95,0.00,,,0.00,0,weatherlink.com 1.10,2013-12-30 05:06:00,
2013-12-30 00:21:00,57.8,57.0,30.00,WSW,258,1.0,2.0,96,0.00,,,0.00,0,weatherlink.com 1.10,2013-12-30 05:21:00,
2013-12-30 00:36:00,57.5,56.0,30.00,NNW,329,3.0,5.0,96,0.00,,,0.00,0,weatherlink.com 1.10,2013-12-30 05:36:00,
2013-12-30 00:51:00,57.4,56.0,30.01,NW,325,0.0,5.0,96,0.00,,,0.00,0,weatherlink.com 1.10,2013-12-30 05:51:00,
2013-12-30 01:07:00,57.2,56.0,30.01,North,355,3.0,4.0,95,0.00,,,0.00,0,weatherlink.com 1.10,2013-12-30 06:07:00,
2013-12-30 01:22:00,56.9,56.0,30.01,WNW,301,3.0,8.0,95,0.00,,,0.00,0,weatherlink.com 1.10,2013-12-30 06:22:00,
2013-12-30 01:37:00,56.5,55.0,30.02,WNW,300,4.0,7.0,95,0.00,,,0.00,0,weatherlink.com 1.10,2013-12-30 06:37:00,
2013-12-30 01:52:00,56.0,55.0,30.02,NNW,342,3.0,8.0,95,0.00,,,0.00,0,weatherlink.com 1.10,2013-12-30 06:52:00,
2013-12-30 02:07:00,55.7,54.0,30.02,NNW,327,4.0,7.0,95,0.00,,,0.00,0,weatherlink.com 1.10,2013-12-30 07:07:00,
2013-12-30 02:22:00,55.4,54.0,30.03,NNW,341,4.0,8.0,96,0.00,,,0.00,0,weatherlink.com 1.10,2013-12-30 07:22:00,
2013-12-30 02:37:00,55.3,54.0,30.02,NNW,336,5.0,9.0,96,0.00,,,0.00,0,weatherlink.com 1.10,2013-12-30 07:37:00,
2013-12-30 02:52:00,54.9,54.0,30.03,NNE,12,2.0,6.0,96,0.00,,,0.00,0,weatherlink.com 1.10,2013-12-30 07:52:00,
2013-12-30 03:07:00,54.2,53.0,30.03,NW,318,5.0,9.0,97,0.00,,,0.00,0,weatherlink.com 1.10,2013-12-30 08:07:00,
2013-12-30 03:24:00,53.9,53.0,30.04,NNW,327,2.0,11.0,97,0.00,,,0.00,0,weatherlink.com 1.10,2013-12-30 08:24:00,
2013-12-30 03:38:00,53.4,53.0,30.04,NW,313,6.0,13.0,97,0.00,,,0.00,0,weatherlink.com 1.10,2013-12-30 08:38:00,
2013-12-30 03:54:00,53.0,52.0,30.05,NW,315,8.0,13.0,97,0.00,,,0.00,0,weatherlink.com 1.10,2013-12-30 08:54:00,
2013-12-30 04:08:00,52.8,52.0,30.05,NNW,336,3.0,12.0,97,0.00,,,0.00,0,weatherlink.com 1.10,2013-12-30 09:08:00,
2013-12-30 04:24:00,52.5,52.0,30.05,NW,323,1.0,7.0,97,0.00,,,0.00,0,weatherlink.com 1.10,2013-12-30 09:24:00,
2013-12-30 04:38:00,51.9,51.0,30.05,WNW,294,4.0,10.0,97,0.00,,,0.00,0,weatherlink.com 1.10,2013-12-30 09:38:00,
2013-12-30 04:54:00,51.6,51.0,30.06,NW,322,4.0,9.0,97,0.00,,,0.00,0,weatherlink.com 1.10,2013-12-30 09:54:00,
2013-12-30 05:08:00,51.7,51.0,30.07,NW,324,3.0,6.0,97,0.00,,,0.00,0,weatherlink.com 1.10,2013-12-30 10:08:00,
2013-12-30 05:38:00,51.0,50.0,30.08,NW,324,0.0,5.0,96,0.00,,,0.00,0,weatherlink.com 1.10,2013-12-30 10:38:00,
2013-12-30 05:54:00,50.5,49.0,30.08,NNW,327,0.0,3.0,96,0.00,,,0.00,0,weatherlink.com 1.10,2013-12-30 10:54:00,
2013-12-30 06:08:00,50.2,49.0,30.09,NNW,335,1.0,6.0,96,0.00,,,0.00,0,weatherlink.com 1.10,2013-12-30 11:08:00,
2013-12-30 06:24:00,49.8,49.0,30.10,NNW,333,1.0,2.0,96,0.00,,,0.00,0,weatherlink.com 1.10,2013-12-30 11:24:00,
2013-12-30 06:39:00,49.5,48.0,30.10,NNW,334,0.0,0.0,96,0.00,,,0.00,0,weatherlink.com 1.10,2013-12-30 11:39:00,
2013-12-30 06:54:00,49.2,48.0,30.11,NNW,338,1.0,3.0,96,0.00,,,0.00,0,weatherlink.com 1.10,2013-12-30 11:54:00,
2013-12-30 07:09:00,48.9,48.0,30.10,NNW,345,0.0,3.0,96,0.00,,,0.00,0,weatherlink.com 1.10,2013-12-30 12:09:00,
2013-12-30 07:24:00,48.5,48.0,30.11,NNW,344,0.0,1.0,96,0.00,,,0.00,9,weatherlink.com 1.10,2013-12-30 12:24:00,
2013-12-30 07:39:00,48.3,47.0,30.12,NNW,338,0.0,3.0,96,0.00,,,0.00,21,weatherlink.com 1.10,2013-12-30 12:39:00,
2013-12-30 07:54:00,48.2,47.0,30.13,NNW,338,0.0,3.0,97,0.00,,,0.00,32,weatherlink.com 1.10,2013-12-30 12:54:00,
2013-12-30 08:09:00,48.5,48.0,30.14,NNW,334,2.0,2.0,97,0.00,,,0.00,44,weatherlink.com 1.10,2013-12-30 13:09:00,
2013-12-30 08:24:00,49.2,48.0,30.15,NNW,327,1.0,4.0,97,0.00,,,0.00,54,weatherlink.com 1.10,2013-12-30 13:24:00,
2013-12-30 08:39:00,49.8,49.0,30.15,NNW,347,3.0,7.0,96,0.00,,,0.00,53,weatherlink.com 1.10,2013-12-30 13:39:00,
2013-12-30 08:55:00,50.6,49.0,30.16,NW,309,1.0,7.0,93,0.00,,,0.00,98,weatherlink.com 1.10,2013-12-30 13:55:00,
2013-12-30 09:10:00,51.2,48.0,30.16,NNE,19,1.0,9.0,90,0.00,,,0.00,90,weatherlink.com 1.10,2013-12-30 14:10:00,
2013-12-30 09:25:00,51.8,48.0,30.16,NNW,348,5.0,9.0,87,0.00,,,0.00,76,weatherlink.com 1.10,2013-12-30 14:25:00,
2013-12-30 09:40:00,52.7,49.0,30.16,NNE,16,1.0,8.0,86,0.00,,,0.00,51,weatherlink.com 1.10,2013-12-30 14:40:00,
2013-12-30 09:55:00,53.9,49.0,30.18,NE,35,2.0,9.0,82,0.00,,,0.00,369,weatherlink.com 1.10,2013-12-30 14:55:00,
2013-12-30 10:10:00,54.4,48.0,30.18,NW,323,10.0,13.0,78,0.00,,,0.00,422,weatherlink.com 1.10,2013-12-30 15:10:00,
2013-12-30 10:25:00,55.4,48.0,30.19,North,5,6.0,11.0,75,0.00,,,0.00,473,weatherlink.com 1.10,2013-12-30 15:25:00,
2013-12-30 10:40:00,56.6,48.0,30.18,North,10,5.0,9.0,73,0.00,,,0.00,487,weatherlink.com 1.10,2013-12-30 15:40:00,
2013-12-30 10:55:00,56.9,48.0,30.18,NNE,26,7.0,11.0,72,0.00,,,0.00,538,weatherlink.com 1.10,2013-12-30 15:55:00,
2013-12-30 11:10:00,57.7,49.0,30.18,NNW,329,5.0,10.0,72,0.00,,,0.00,98,weatherlink.com 1.10,2013-12-30 16:10:00,
2013-12-30 11:25:00,57.8,48.0,30.18,North,5,4.0,9.0,69,0.00,,,0.00,492,weatherlink.com 1.10,2013-12-30 16:25:00,
2013-12-30 11:40:00,59.1,48.0,30.18,NNW,331,4.0,9.0,68,0.00,,,0.00,601,weatherlink.com 1.10,2013-12-30 16:40:00,
2013-12-30 11:56:00,59.8,48.0,30.16,NNE,15,3.0,6.0,66,0.00,,,0.00,619,weatherlink.com 1.10,2013-12-30 16:56:00,
2013-12-30 12:10:00,60.7,47.0,30.16,NNE,13,4.0,7.0,62,0.00,,,0.00,626,weatherlink.com 1.10,2013-12-30 17:10:00,
2013-12-30 12:25:00,60.8,48.0,30.14,North,5,0.0,5.0,63,0.00,,,0.00,624,weatherlink.com 1.10,2013-12-30 17:25:00,
2013-12-30 12:41:00,61.6,50.0,30.13,NNE,19,2.0,5.0,66,0.00,,,0.00,631,weatherlink.com 1.10,2013-12-30 17:41:00,
2013-12-30 12:56:00,62.3,49.0,30.13,WNW,302,2.0,5.0,63,0.00,,,0.00,635,weatherlink.com 1.10,2013-12-30 17:56:00,
2013-12-30 13:11:00,63.2,48.0,30.12,WNW,284,2.0,4.0,59,0.00,,,0.00,557,weatherlink.com 1.10,2013-12-30 18:11:00,
2013-12-30 13:26:00,63.7,49.0,30.12,NNE,32,1.0,4.0,60,0.00,,,0.00,612,weatherlink.com 1.10,2013-12-30 18:26:00,
2013-12-30 13:41:00,63.8,48.0,30.11,NW,323,2.0,5.0,56,0.00,,,0.00,533,weatherlink.com 1.10,2013-12-30 18:41:00,
2013-12-30 13:56:00,64.9,49.0,30.12,NNE,13,5.0,5.0,57,0.00,,,0.00,512,weatherlink.com 1.10,2013-12-30 18:56:00,
2013-12-30 14:11:00,64.8,49.0,30.12,ENE,78,0.0,8.0,56,0.00,,,0.00,566,weatherlink.com 1.10,2013-12-30 19:11:00,
2013-12-30 14:26:00,65.1,48.0,30.12,West,269,3.0,7.0,55,0.00,,,0.00,522,weatherlink.com 1.10,2013-12-30 19:26:00,
2013-12-30 14:41:00,65.3,49.0,30.12,NW,325,4.0,6.0,56,0.00,,,0.00,399,weatherlink.com 1.10,2013-12-30 19:41:00,
2013-12-30 14:56:00,65.4,48.0,30.11,NNW,348,3.0,6.0,54,0.00,,,0.00,343,weatherlink.com 1.10,2013-12-30 19:56:00,
2013-12-30 15:11:00,65.6,48.0,30.11,NE,34,5.0,5.0,54,0.00,,,0.00,367,weatherlink.com 1.10,2013-12-30 20:11:00,
2013-12-30 15:27:00,65.7,49.0,30.11,West,276,1.0,6.0,55,0.00,,,0.00,246,weatherlink.com 1.10,2013-12-30 20:27:00,
2013-12-30 15:41:00,65.6,49.0,30.11,North,355,2.0,5.0,56,0.00,,,0.00,229,weatherlink.com 1.10,2013-12-30 20:41:00,
2013-12-30 15:57:00,65.5,50.0,30.11,North,360,3.0,4.0,57,0.00,,,0.00,274,weatherlink.com 1.10,2013-12-30 20:57:00,
2013-12-30 16:12:00,65.6,50.0,30.12,North,350,3.0,5.0,57,0.00,,,0.00,195,weatherlink.com 1.10,2013-12-30 21:12:00,
2013-12-30 16:27:00,65.2,50.0,30.12,NNW,334,2.0,5.0,59,0.00,,,0.00,158,weatherlink.com 1.10,2013-12-30 21:27:00,
2013-12-30 16:42:00,65.2,51.0,30.12,NNW,348,2.0,4.0,60,0.00,,,0.00,149,weatherlink.com 1.10,2013-12-30 21:42:00,
2013-12-30 16:57:00,65.0,51.0,30.12,North,5,0.0,3.0,61,0.00,,,0.00,77,weatherlink.com 1.10,2013-12-30 21:57:00,
2013-12-30 17:12:00,64.5,51.0,30.12,North,360,0.0,1.0,63,0.00,,,0.00,49,weatherlink.com 1.10,2013-12-30 22:12:00,
2013-12-30 17:27:00,63.4,51.0,30.12,North,5,0.0,2.0,65,0.00,,,0.00,19,weatherlink.com 1.10,2013-12-30 22:27:00,
2013-12-30 17:42:00,62.3,52.0,30.12,North,5,0.0,0.0,69,0.00,,,0.00,0,weatherlink.com 1.10,2013-12-30 22:42:00,
2013-12-30 17:57:00,60.4,51.0,30.13,North,5,0.0,0.0,72,0.00,,,0.00,0,weatherlink.com 1.10,2013-12-30 22:57:00,
2013-12-30 18:12:00,58.3,51.0,30.13,North,5,0.0,0.0,77,0.00,,,0.00,0,weatherlink.com 1.10,2013-12-30 23:12:00,
2013-12-30 18:27:00,56.6,52.0,30.14,North,5,0.0,0.0,83,0.00,,,0.00,0,weatherlink.com 1.10,2013-12-30 23:27:00,
2013-12-30 18:42:00,55.5,51.0,30.14,North,5,0.0,0.0,84,0.00,,,0.00,0,weatherlink.com 1.10,2013-12-30 23:42:00,
2013-12-30 18:57:00,54.6,50.0,30.16,North,5,0.0,0.0,85,0.00,,,0.00,0,weatherlink.com 1.10,2013-12-30 23:57:00,
2013-12-30 19:12:00,54.0,50.0,30.17,North,5,0.0,0.0,86,0.00,,,0.00,0,weatherlink.com 1.10,2013-12-31 00:12:00,
2013-12-30 19:28:00,53.6,49.0,30.18,North,5,0.0,0.0,85,0.00,,,0.00,0,weatherlink.com 1.10,2013-12-31 00:28:00,
2013-12-30 19:42:00,52.7,49.0,30.18,North,5,0.0,0.0,87,0.00,,,0.00,0,weatherlink.com 1.10,2013-12-31 00:42:00,
2013-12-30 19:58:00,51.8,49.0,30.18,North,5,0.0,0.0,89,0.00,,,0.00,0,weatherlink.com 1.10,2013-12-31 00:58:00,
2013-12-30 20:12:00,51.0,49.0,30.19,North,9,0.0,1.0,91,0.00,,,0.00,0,weatherlink.com 1.10,2013-12-31 01:12:00,
2013-12-30 20:28:00,51.0,49.0,30.19,North,9,0.0,0.0,91,0.00,,,0.00,0,weatherlink.com 1.10,2013-12-31 01:28:00,
2013-12-30 20:44:00,50.6,48.0,30.18,North,9,0.0,0.0,91,0.00,,,0.00,0,weatherlink.com 1.10,2013-12-31 01:44:00,
2013-12-30 21:00:00,50.4,48.0,30.20,North,9,0.0,0.0,92,0.00,,,0.00,0,weatherlink.com 1.10,2013-12-31 02:00:00,
2013-12-30 21:14:00,50.4,48.0,30.21,North,9,0.0,0.0,92,0.00,,,0.00,0,weatherlink.com 1.10,2013-12-31 02:14:00,
2013-12-30 21:28:00,51.0,49.0,30.20,North,9,0.0,0.0,92,0.00,,,0.00,0,weatherlink.com 1.10,2013-12-31 02:28:00,
2013-12-30 21:44:00,51.6,49.0,30.21,North,9,0.0,1.0,92,0.00,,,0.00,0,weatherlink.com 1.10,2013-12-31 02:44:00,
2013-12-30 21:58:00,51.6,49.0,30.20,North,5,0.0,1.0,92,0.00,,,0.00,0,weatherlink.com 1.10,2013-12-31 02:58:00,
2013-12-30 22:14:00,51.8,50.0,30.21,North,360,0.0,1.0,92,0.00,,,0.00,0,weatherlink.com 1.10,2013-12-31 03:14:00,
2013-12-30 22:28:00,51.9,50.0,30.21,North,360,0.0,1.0,92,0.00,,,0.00,0,weatherlink.com 1.10,2013-12-31 03:28:00,
2013-12-30 22:44:00,51.9,50.0,30.20,North,5,0.0,0.0,92,0.00,,,0.00,0,weatherlink.com 1.10,2013-12-31 03:44:00,
2013-12-30 22:58:00,51.7,50.0,30.21,North,5,0.0,0.0,92,0.00,,,0.00,0,weatherlink.com 1.10,2013-12-31 03:58:00,
2013-12-30 23:15:00,51.5,50.0,30.21,North,5,0.0,0.0,93,0.00,,,0.00,0,weatherlink.com 1.10,2013-12-31 04:15:00,
2013-12-30 23:28:00,51.4,50.0,30.21,North,5,0.0,0.0,93,0.00,,,0.00,0,weatherlink.com 1.10,2013-12-31 04:28:00,
2013-12-30 23:44:00,51.1,49.0,30.21,North,5,0.0,0.0,93,0.00,,,0.00,0,weatherlink.com 1.10,2013-12-31 04:44:00,
2013-12-30 23:58:00,50.8,49.0,30.20,North,5,0.0,0.0,93,0.00,,,0.00,0,weatherlink.com 1.10,2013-12-31 04:58:00,